Latest Weather Observations for Moomba Airport

IDS60801

Issued at 10:35 am CDT Saturday 1 November 2014 (issued every 30 minutes, with the page automatically refreshed every 10 minutes)

About weather observations | Map of weather stations | Latest weather observations for SA | Other Formats
Station Details ID: 017123 Name: MOOMBA AIRPORT Lat: -28.10 Lon: 140.20 Height: 37.8 m
Data from the previous 72 hours. | See also: Recent months at Moomba Airport
Date/Time
CDT
Temp
°C
App
Temp
°C
Dew
Point
Rel
Hum
%
Delta-T
°C
Wind Press
QNH
hPa
Press
MSL
hPa
Rain
since 9 am
mm
Dir
 
Spd
km/h
Gust
km/h
Spd
kts
Gust
kts
01/10:30am 27.1 24.0 14.5 46 7.6 SSW 24 37 13 20 1011.8 1011.6 0.0
01/10:00am 26.8 22.8 14.2 46 7.5 SW 28 35 15 19 1011.7 1011.6 0.0
01/09:30am 25.9 21.5 14.1 48 7.0 SW 30 37 16 20 1011.1 1011.0 0.0
01/09:00am 25.8 21.6 13.6 47 7.2 SW 28 39 15 21 1010.4 1010.2 0.0
01/08:30am 25.5 23.3 13.4 47 7.1 SW 17 24 9 13 1009.9 1009.7 0.0
01/08:00am 25.5 22.6 13.0 46 7.3 WSW 20 26 11 14 1009.6 1009.4 0.0
01/07:30am 25.2 22.9 13.1 47 7.1 W 17 24 9 13 1009.4 1009.2 0.0
01/07:00am 24.9 22.5 12.8 47 7.0 WSW 17 22 9 12 1009.1 1008.9 0.0
01/06:30am 24.3 21.5 12.6 48 6.7 WSW 19 22 10 12 1008.9 1008.7 0.0
01/06:00am 24.1 22.2 11.8 46 7.0 W 13 15 7 8 1008.1 1007.9 0.0
01/05:30am 24.8 23.5 12.4 46 7.1 SW 11 15 6 8 1007.1 1006.9 0.0
01/05:00am 25.1 23.4 12.3 45 7.4 SW 13 17 7 9 1006.8 1006.6 0.0
01/04:30am 25.5 24.2 12.4 44 7.6 SSW 11 17 6 9 1006.1 1005.9 0.0
01/04:00am 26.2 23.8 12.6 43 7.9 S 17 32 9 17 1005.8 1005.6 0.0
01/03:30am 26.2 23.9 13.0 44 7.7 S 17 20 9 11 1005.8 1005.6 0.0
01/03:00am 26.7 21.0 13.1 43 8.0 SSW 35 48 19 26 1005.8 1005.6 0.0
01/02:30am 27.0 20.4 12.6 41 8.4 SSW 39 61 21 33 1005.9 1005.7 0.0
01/02:00am 27.6 18.5 12.4 39 8.8 SW 52 74 28 40 1006.4 1006.2 0.0
01/01:30am 29.4 20.5 11.9 34 10.2 SW 50 78 27 42 1005.8 1005.6 0.0
01/01:25am 31.3 23.3 10.6 28 11.9 WSW 43 61 23 33 1005.6 1005.4 0.0
01/01:17am 31.9 23.2 6.2 20 13.8 W 41 59 22 32 1005.3 1005.1 0.0
01/01:14am 31.3 23.4 4.2 18 14.0 W 35 48 19 26 1005.3 1005.1 0.0
01/01:00am 28.6 22.7 2.0 18 13.0 NW 22 30 12 16 1004.8 1004.6 0.0
01/12:30am 28.7 23.4 2.1 18 13.1 N 19 20 10 11 1003.8 1003.6 0.0
01/12:00am 28.9 23.9 1.4 17 13.4 N 17 19 9 10 1004.1 1003.9 0.0
 
Date/Time
CDT
Temp
°C
App
Temp
°C
Dew
Point
Rel
Hum
%
Delta-T
°C
Wind Press
QNH
hPa
Press
MSL
hPa
Rain
since 9 am
mm
Dir
 
Spd
km/h
Gust
km/h
Spd
kts
Gust
kts
31/11:30pm 28.9 23.5 1.4 17 13.4 N 19 20 10 11 1004.3 1004.1 0.0
31/11:00pm 28.9 24.7 1.4 17 13.4 N 13 15 7 8 1004.6 1004.4 0.0
31/10:30pm 29.0 24.4 1.5 17 13.4 N 15 17 8 9 1004.7 1004.5 0.0
31/10:00pm 29.4 24.8 1.8 17 13.6 N 15 17 8 9 1004.7 1004.5 0.0
31/09:30pm 29.8 25.5 1.3 16 14.0 N 13 15 7 8 1004.7 1004.5 0.0
31/09:00pm 31.6 27.4 1.8 15 14.9 NNW 13 15 7 8 1004.5 1004.3 0.0
31/08:30pm 32.6 28.4 1.7 14 15.5 NNW 13 15 7 8 1004.3 1004.1 0.0
31/08:00pm 34.6 29.6 1.1 12 16.8 NW 17 20 9 11 1004.3 1004.1 0.0
31/07:30pm 35.8 30.3 0.8 11 17.7 WNW 19 26 10 14 1003.9 1003.7 0.0
31/07:00pm 37.0 30.0 1.7 11 18.2 WNW 28 37 15 20 1003.5 1003.3 0.0
31/06:30pm 38.0 30.9 1.1 10 19.0 NW 28 41 15 22 1003.3 1003.1 0.0
31/06:00pm 37.7 31.3 0.9 10 18.8 W 24 39 13 21 1003.2 1003.0 0.0
31/05:30pm 38.2 32.6 1.3 10 19.1 WNW 20 32 11 17 1003.2 1003.0 0.0
31/05:00pm 39.3 32.8 0.6 9 19.8 WNW 24 32 13 17 1003.2 1003.0 0.0
31/04:30pm 38.9 33.2 0.3 9 19.7 NNW 20 35 11 19 1003.3 1003.1 0.0
31/04:00pm 39.3 33.2 0.6 9 19.8 W 22 41 12 22 1003.7 1003.5 0.0
31/03:30pm 39.0 33.5 0.4 9 19.8 W 19 24 10 13 1004.0 1003.8 0.0
31/03:00pm 39.7 32.3 -0.7 8 20.4 NW 28 41 15 22 1004.4 1004.2 0.0
31/02:58pm 39.5 31.7 -0.8 8 20.2 NW 30 41 16 22 1004.5 1004.3 0.0
31/02:30pm 38.4 34.1 -1.6 8 19.8 SSW 11 19 6 10 1004.9 1004.7 0.0
31/02:00pm 38.6 33.6 -1.5 8 19.8 NW 15 28 8 15 1005.5 1005.3 0.0
31/01:30pm 38.5 33.4 -1.6 8 19.8 NNW 15 30 8 16 1005.8 1005.6 0.0
31/01:00pm 38.4 34.7 0.0 9 19.4 WNW 9 17 5 9 1006.1 1005.9 0.0
31/12:30pm 37.2 33.0 -0.9 9 18.9 NNW 11 22 6 12 1006.7 1006.5 0.0
31/12:00pm 37.3 33.3 -2.4 8 19.2 SSE 9 17 5 9 1007.2 1007.0 0.0
31/11:30am 36.8 32.7 -2.8 8 19.0 E 9 17 5 9 1007.5 1007.3 0.0
31/11:00am 36.7 32.1 -1.3 9 18.6 NNE 13 20 7 11 1007.9 1007.7 0.0
31/10:30am 36.3 31.2 -1.6 9 18.5 NNE 15 20 8 11 1008.1 1007.9 0.0
31/10:00am 35.3 29.4 -0.9 10 17.7 NE 20 28 11 15 1008.2 1008.0 0.0
31/09:30am 34.3 27.5 -1.7 10 17.3 NE 24 28 13 15 1008.4 1008.2 0.0
31/09:00am 32.9 26.9 -1.4 11 16.4 ENE 20 26 11 14 1008.6 1008.4 0.0
31/08:30am 30.4 26.2 -1.1 13 14.8 ENE 11 15 6 8 1008.4 1008.2 0.0
31/08:00am 27.1 23.6 -1.7 15 13.1 ENE 7 9 4 5 1008.6 1008.4 0.0
31/07:30am 26.6 22.7 -1.3 16 12.7 ENE 9 9 5 5 1008.5 1008.3 0.0
31/07:00am 23.1 19.1 -2.5 18 11.1 ENE 9 11 5 6 1008.5 1008.3 0.0
31/06:30am 22.2 17.7 -3.2 18 10.8 E 11 13 6 7 1008.1 1007.9 0.0
31/06:00am 22.4 18.2 -3.8 17 11.0 E 9 11 5 6 1008.2 1008.0 0.0
31/05:30am 22.2 17.6 -4.0 17 10.9 E 11 13 6 7 1008.2 1008.0 0.0
31/05:00am 23.0 18.0 -4.1 16 11.4 E 13 15 7 8 1008.1 1007.9 0.0
31/04:30am 23.8 18.4 -4.4 15 11.9 E 15 17 8 9 1008.2 1008.0 0.0
31/04:00am 24.8 19.9 -3.6 15 12.2 E 13 17 7 9 1008.2 1008.0 0.0
31/03:30am 26.5 21.6 -3.1 14 13.1 ESE 13 17 7 9 1008.2 1008.0 0.0
31/03:00am 27.1 22.2 -3.7 13 13.5 ESE 13 17 7 9 1008.4 1008.2 0.0
31/02:30am 28.5 22.9 -2.6 13 14.1 SE 17 22 9 12 1008.6 1008.4 0.0
31/02:00am 29.1 22.9 -3.2 12 14.5 SE 20 28 11 15 1009.0 1008.8 0.0
31/01:30am 28.8 23.5 -3.4 12 14.4 SSE 15 20 8 11 1009.6 1009.4 0.0
31/01:00am 28.2 23.6 -3.9 12 14.1 S 11 15 6 8 1009.9 1009.7 0.0
31/12:30am 28.2 23.2 -3.9 12 14.2 S 13 17 7 9 1009.9 1009.7 0.0
31/12:00am 27.2 23.3 -4.6 12 13.7 SSW 7 13 4 7 1010.2 1010.0 0.0
 
Date/Time
CDT
Temp
°C
App
Temp
°C
Dew
Point
Rel
Hum
%
Delta-T
°C
Wind Press
QNH
hPa
Press
MSL
hPa
Rain
since 9 am
mm
Dir
 
Spd
km/h
Gust
km/h
Spd
kts
Gust
kts
30/11:30pm 26.9 23.0 -4.9 12 13.6 SW 7 9 4 5 1010.3 1010.1 0.0
30/11:00pm 27.6 23.7 -4.3 12 13.9 SSW 7 9 4 5 1010.1 1009.9 0.0
30/10:30pm 27.9 24.1 -5.2 11 14.2 SSW 6 7 3 4 1010.3 1010.1 0.0
30/10:00pm 29.2 25.3 -4.3 11 14.8 SSW 7 9 4 5 1010.2 1010.0 0.0
30/09:30pm 29.2 26.7 -4.3 11 14.8 CALM 0 0 0 0 1010.1 1009.9 0.0
30/09:00pm 30.4 27.8 -4.6 10 15.5 CALM 0 7 0 4 1010.2 1010.0 0.0
30/08:30pm 30.3 27.7 -4.7 10 15.5 CALM 0 0 0 0 1010.1 1009.9 0.0
30/08:00pm 31.7 29.2 -3.6 10 16.1 CALM 0 0 0 0 1009.9 1009.7 0.0
30/07:30pm 33.4 31.1 -2.3 10 16.8 CALM 0 0 0 0 1009.7 1009.5 0.0
30/07:00pm 34.3 30.8 -3.1 9 17.5 S 6 7 3 4 1009.5 1009.3 0.0
30/06:30pm 35.2 31.2 -2.4 9 17.9 S 9 13 5 7 1009.5 1009.3 0.0
30/06:00pm 35.4 32.0 -2.3 9 18.0 SE 6 9 3 5 1009.4 1009.2 0.0
30/05:30pm 35.6 32.2 -2.1 9 18.1 NNE 6 9 3 5 1009.3 1009.1 0.0
30/05:00pm 35.8 31.3 -3.5 8 18.5 E 11 17 6 9 1009.3 1009.1 0.0
30/04:30pm 35.9 31.4 -3.5 8 18.6 NE 11 19 6 10 1009.4 1009.2 0.0
30/04:00pm 36.1 32.4 -3.3 8 18.6 NNE 7 15 4 8 1009.6 1009.4 0.0
30/03:30pm 36.6 30.6 -3.0 8 18.9 ENE 19 22 10 12 1009.8 1009.6 0.0
30/03:00pm 36.4 32.9 -3.1 8 18.8 NNE 6 13 3 7 1010.3 1010.1 0.0
30/02:30pm 36.3 31.0 -3.2 8 18.7 SE 15 22 8 12 1010.6 1010.4 0.0
30/02:00pm 36.2 31.9 -1.7 9 18.4 NE 11 24 6 13 1011.2 1011.1 0.0
30/01:30pm 35.8 31.8 -2.0 9 18.2 E 9 15 5 8 1011.6 1011.5 0.0
30/01:00pm 35.3 29.4 -2.3 9 17.9 E 19 26 10 14 1012.1 1012.0 0.0
30/12:30pm 35.9 30.2 -0.5 10 18.0 E 19 24 10 13 1012.4 1012.3 0.0
30/12:00pm 35.7 29.8 -2.0 9 18.1 E 19 24 10 13 1013.0 1012.9 0.0
30/11:30am 34.5 30.6 -1.5 10 17.3 N 9 20 5 11 1013.6 1013.5 0.0
30/11:00am 34.1 28.4 -0.5 11 16.9 ENE 19 26 10 14 1014.0 1013.9 0.0
30/10:30am 33.1 27.2 2.0 14 15.7 ENE 22 30 12 16 1014.2 1014.1 0.0
30/10:00am 31.9 25.6 3.8 17 14.5 ENE 26 32 14 17 1014.4 1014.3 0.0
30/09:30am 30.1 24.8 3.2 18 13.6 ENE 20 28 11 15 1014.3 1014.2 0.0
30/09:00am 29.2 23.2 3.2 19 13.1 ENE 24 28 13 15 1014.4 1014.3 0.0
30/08:30am 28.0 22.7 3.0 20 12.4 E 20 26 11 14 1014.6 1014.5 0.0
30/08:00am 24.4 19.9 0.0 20 11.2 E 13 17 7 9 1014.5 1014.4 0.0
30/07:30am 21.3 17.3 -1.9 21 10.0 ENE 9 11 5 6 1014.3 1014.2 0.0
30/07:00am 18.7 14.3 -2.8 23 8.9 E 11 13 6 7 1014.0 1013.9 0.0
30/06:30am 17.2 13.1 -3.0 25 8.2 E 9 11 5 6 1013.8 1013.7 0.0
30/06:00am 18.0 14.0 -2.3 25 8.4 E 9 11 5 6 1013.7 1013.6 0.0
30/05:30am 19.0 15.4 -2.0 24 8.8 ESE 7 9 4 5 1013.5 1013.4 0.0
30/05:00am 19.9 16.3 -1.8 23 9.2 ESE 7 9 4 5 1013.3 1013.2 0.0
30/04:30am 20.4 16.9 -2.6 21 9.7 SSE 6 7 3 4 1013.3 1013.2 0.0
30/04:00am 20.5 16.8 -3.2 20 9.9 ESE 7 9 4 5 1013.2 1013.1 0.0
30/03:30am 21.8 17.4 -2.8 19 10.5 SE 11 13 6 7 1013.2 1013.1 0.0
30/03:00am 22.6 17.8 -2.9 18 10.9 SE 13 17 7 9 1013.2 1013.1 0.0
30/02:30am 23.5 18.7 -2.2 18 11.2 SE 13 17 7 9 1013.5 1013.4 0.0
30/02:00am 24.8 19.7 -1.9 17 11.9 SE 15 19 8 10 1013.6 1013.5 0.0
30/01:30am 22.5 18.0 -3.0 18 10.9 ESE 11 15 6 8 1013.7 1013.6 0.0
30/01:00am 25.2 19.2 -3.2 15 12.3 SE 19 22 10 12 1013.8 1013.7 0.0
30/12:30am 25.3 20.0 -3.2 15 12.4 S 15 20 8 11 1014.2 1014.1 0.0
30/12:00am 24.8 19.8 -4.5 14 12.4 S 13 15 7 8 1014.3 1014.2 0.0
 
Date/Time
CDT
Temp
°C
App
Temp
°C
Dew
Point
Rel
Hum
%
Delta-T
°C
Wind Press
QNH
hPa
Press
MSL
hPa
Rain
since 9 am
mm
Dir
 
Spd
km/h
Gust
km/h
Spd
kts
Gust
kts
29/11:30pm 25.4 20.4 -4.0 14 12.6 S 13 17 7 9 1014.6 1014.5 0.0
29/11:00pm 25.9 21.2 -4.6 13 13.0 S 11 15 6 8 1014.5 1014.4 0.0
29/10:30pm 26.4 21.8 -4.2 13 13.2 S 11 15 6 8 1014.6 1014.5 0.0
29/10:00pm 25.7 21.9 -3.8 14 12.7 S 7 9 4 5 1014.6 1014.5 0.0
29/09:30pm 27.0 23.3 -2.7 14 13.2 SSW 7 9 4 5 1014.4 1014.3 0.0
29/09:00pm 28.5 24.3 -3.6 12 14.2 S 9 13 5 7 1014.2 1014.1 0.0
29/08:30pm 29.3 24.8 -3.0 12 14.6 S 11 13 6 7 1013.9 1013.8 0.0
29/08:00pm 31.1 26.5 -4.1 10 15.8 S 11 13 6 7 1013.6 1013.5 0.0
29/07:30pm 31.7 27.9 -3.6 10 16.1 SSE 7 9 4 5 1013.2 1013.1 0.0
29/07:00pm 33.0 28.0 -4.0 9 16.9 SE 13 17 7 9 1012.9 1012.8 0.0
29/06:30pm 33.6 28.7 -3.6 9 17.2 S 13 20 7 11 1012.9 1012.8 0.0
29/06:00pm 33.7 28.4 -3.5 9 17.2 SSW 15 20 8 11 1012.8 1012.7 0.0
29/05:30pm 34.0 29.9 -3.3 9 17.4 SSE 9 19 5 10 1012.7 1012.6 0.0
29/05:00pm 34.0 29.1 -3.3 9 17.4 S 13 20 7 11 1012.8 1012.7 0.0
29/04:30pm 34.1 30.0 -3.2 9 17.4 ESE 9 22 5 12 1013.0 1012.9 0.0
29/04:00pm 34.0 29.9 -3.3 9 17.4 SSW 9 15 5 8 1013.2 1013.1 0.0
29/03:30pm 34.4 29.9 -3.0 9 17.5 E 11 19 6 10 1013.8 1013.7 0.0
29/03:00pm 34.1 28.8 -3.2 9 17.4 ESE 15 24 8 13 1014.2 1014.1 0.0
29/02:30pm 33.4 28.6 -2.3 10 16.8 ESE 13 20 7 11 1014.7 1014.6 0.0
29/02:00pm 33.6 28.8 -2.2 10 16.9 SE 13 20 7 11 1015.3 1015.2 0.0
29/01:30pm 32.4 27.5 -3.1 10 16.4 SE 13 20 7 11 1015.8 1015.7 0.0
29/01:00pm 32.4 28.5 -1.8 11 16.1 ESE 9 17 5 9 1016.3 1016.2 0.0
29/12:30pm 32.3 26.4 -1.9 11 16.1 ENE 19 24 10 13 1016.6 1016.5 0.0
29/12:00pm 31.3 25.5 -1.5 12 15.4 SE 19 28 10 15 1017.0 1016.9 0.0
29/11:30am 30.9 25.1 -1.8 12 15.2 ESE 19 28 10 15 1017.4 1017.3 0.0
29/11:00am 30.1 24.3 -1.3 13 14.7 ESE 19 26 10 14 1017.8 1017.7 0.0

Other Formats:

Comma delimited format used in spreadsheet applications
http://www.bom.gov.au/fwo/IDS60801/IDS60801.95481.axf

JavaScript Object Notation format (JSON) in row-major order
http://www.bom.gov.au/fwo/IDS60801/IDS60801.95481.json